createdAt,value
2016-04-04T00:00:14.937Z,74.61
2016-04-04T00:01:14.940Z,74.99
2016-04-04T00:02:14.926Z,75.09
2016-04-04T00:03:14.946Z,75.37
2016-04-04T00:04:14.932Z,75.18
2016-04-04T00:05:14.935Z,75.66
2016-04-04T00:06:14.969Z,75.27
2016-04-04T00:07:14.972Z,75.62
2016-04-04T00:08:14.975Z,75.85
2016-04-04T00:09:14.977Z,75.34
2016-04-04T00:10:14.964Z,76.1
2016-04-04T00:11:14.998Z,76.42
2016-04-04T00:12:15.001Z,76.42
2016-04-04T00:13:14.988Z,76.2
2016-04-04T00:14:14.975Z,76.14
2016-04-04T00:15:14.994Z,76.23
2016-04-04T00:16:15.028Z,76.1
2016-04-04T00:17:15.014Z,76.39
2016-04-04T00:18:15.016Z,76.29
2016-04-04T00:19:15.019Z,76.77
2016-04-04T00:20:15.022Z,76.67
2016-04-04T00:21:15.041Z,77.72
2016-04-04T00:22:15.044Z,77.53
2016-04-04T00:23:15.030Z,77.72
2016-04-04T00:24:15.049Z,77.82
2016-04-04T00:25:15.035Z,78.11
2016-04-04T00:26:14.929Z,77.92
2016-04-04T00:27:15.041Z,78.49
2016-04-04T00:28:15.044Z,78.68
2016-04-04T00:29:15.046Z,78.68
2016-04-04T00:30:15.065Z,78.78
2016-04-04T00:31:15.067Z,78.58
2016-04-04T00:32:15.085Z,79.35
2016-04-04T00:33:15.073Z,78.68
2016-04-04T00:34:15.091Z,78.58
2016-04-04T00:35:15.093Z,78.49
2016-04-04T00:36:15.081Z,78.49
2016-04-04T00:37:15.083Z,78.2
2016-04-04T00:38:15.101Z,78.39
2016-04-04T00:39:15.105Z,78.2
2016-04-04T00:40:15.106Z,78.39
2016-04-04T00:41:15.126Z,77.92
2016-04-04T00:42:15.112Z,78.01
2016-04-04T00:43:15.114Z,78.39
2016-04-04T00:44:15.133Z,78.49
2016-04-04T00:45:15.137Z,78.11
2016-04-04T00:46:15.123Z,78.2
2016-04-04T00:47:15.142Z,78.39
2016-04-04T00:48:15.160Z,78.2
2016-04-04T00:49:15.147Z,78.39
2016-04-04T00:50:15.149Z,78.39
2016-04-04T00:51:15.152Z,78.58
2016-04-04T00:52:15.155Z,78.3
2016-04-04T00:53:15.158Z,78.78
2016-04-04T00:54:15.191Z,78.78
2016-04-04T00:55:15.179Z,78.97
2016-04-04T00:56:15.166Z,79.64
2016-04-04T00:57:15.169Z,79.5
2016-04-04T00:58:15.187Z,79.54
2016-04-04T00:59:15.174Z,79.6
2016-04-04T01:00:15.176Z,79.02
2016-04-04T01:01:15.210Z,79.02
2016-04-04T01:02:15.213Z,79.06
2016-04-04T01:03:15.201Z,78.39
2016-04-04T01:04:15.204Z,78.11
2016-04-04T01:05:15.206Z,77.92
2016-04-04T01:06:15.209Z,77.63
2016-04-04T01:07:15.212Z,77.15
2016-04-04T01:08:15.230Z,77.44
2016-04-04T01:09:15.217Z,76.67
2016-04-04T01:10:15.220Z,76.57
2016-04-04T01:11:15.254Z,76.86
2016-04-04T01:12:15.225Z,76.29
2016-04-04T01:13:15.243Z,76.2
2016-04-04T01:14:15.230Z,76.1
2016-04-04T01:15:15.248Z,75.81
2016-04-04T01:16:15.251Z,75.34
2016-04-04T01:17:15.253Z,75.43
2016-04-04T01:18:15.256Z,75.34
2016-04-04T01:19:15.259Z,75.34
2016-04-04T01:20:15.261Z,75.34
2016-04-04T01:21:15.280Z,74.85
2016-04-04T01:22:15.283Z,74.95
2016-04-04T01:23:15.270Z,74.41
2016-04-04T01:24:15.289Z,74.41
2016-04-04T01:25:15.275Z,74.04
2016-04-04T01:26:15.310Z,73.94
2016-04-04T01:27:15.296Z,73.75
2016-04-04T01:28:15.299Z,73.84
2016-04-04T01:29:15.301Z,73.75
2016-04-04T01:30:15.304Z,73.65
2016-04-04T01:31:15.323Z,73.94
2016-04-04T01:32:15.310Z,73.55
2016-04-04T01:33:15.329Z,72.79
2016-04-04T01:34:15.331Z,73.65
2016-04-04T01:35:15.318Z,73.65
2016-04-04T01:36:15.337Z,73.55
2016-04-04T01:37:15.340Z,73.94
2016-04-04T01:38:15.342Z,73.84
2016-04-04T01:39:15.345Z,73.84
2016-04-04T01:40:15.363Z,73.75
2016-04-04T01:41:15.365Z,73.46
2016-04-04T01:42:15.353Z,74.32
2016-04-04T01:43:15.355Z,74.51
2016-04-04T01:44:15.358Z,74.41
2016-04-04T01:45:15.361Z,74.22
2016-04-04T01:46:15.378Z,74.61
2016-04-04T01:47:15.381Z,74.9
2016-04-04T01:48:15.383Z,74.8
2016-04-04T01:49:15.386Z,74.9
2016-04-04T01:50:15.405Z,74.9
2016-04-04T01:51:15.391Z,75.18
2016-04-04T01:52:15.394Z,75.56
2016-04-04T01:53:15.397Z,75.37
2016-04-04T01:54:15.399Z,75.62
2016-04-04T01:55:15.433Z,75.76
2016-04-04T01:56:15.421Z,75.62
2016-04-04T01:57:15.408Z,75.91
2016-04-04T01:58:15.426Z,75.91
2016-04-04T01:59:15.429Z,75.91
2016-04-04T02:00:15.437Z,75.62
2016-04-04T02:01:15.440Z,75.34
2016-04-04T02:02:15.443Z,76.2
2016-04-04T02:03:15.460Z,76.2
2016-04-04T02:04:15.448Z,76.1
2016-04-04T02:05:15.465Z,76.48
2016-04-04T02:06:15.453Z,76.39
2016-04-04T02:07:15.456Z,76.67
2016-04-04T02:08:15.458Z,76.77
2016-04-04T02:09:15.476Z,76.57
2016-04-04T02:10:15.495Z,76.67
2016-04-04T02:11:15.498Z,77.15
2016-04-04T02:12:15.484Z,77.34
2016-04-04T02:13:15.503Z,77.63
2016-04-04T02:14:15.490Z,77.06
2016-04-04T02:15:15.509Z,77.15
2016-04-04T02:16:15.511Z,76.67
2016-04-04T02:17:15.545Z,76.86
2016-04-04T02:18:15.516Z,76.67
2016-04-04T02:19:15.519Z,76.86
2016-04-04T02:20:15.538Z,76.86
2016-04-04T02:21:15.525Z,76.86
2016-04-04T02:22:15.528Z,76.67
2016-04-04T02:23:15.530Z,76.67
2016-04-04T02:24:15.549Z,76.39
2016-04-04T02:25:15.566Z,76.39
2016-04-04T02:26:15.554Z,76.67
2016-04-04T02:27:15.572Z,76.96
2016-04-04T02:28:15.560Z,76.57
2016-04-04T02:29:15.562Z,76.96
2016-04-04T02:30:15.580Z,76.86
2016-04-04T02:31:15.583Z,76.39
2016-04-04T02:32:15.585Z,76.67
2016-04-04T02:33:15.573Z,77.25
2016-04-04T02:34:15.576Z,77.15
2016-04-04T02:35:15.578Z,76.86
2016-04-04T02:36:15.596Z,77.15
2016-04-04T02:37:15.599Z,77.34
2016-04-04T02:38:15.586Z,77.15
2016-04-04T02:39:15.604Z,76.86
2016-04-04T02:40:15.592Z,77.34
2016-04-04T02:41:15.609Z,77.63
2016-04-04T02:42:15.612Z,77.34
2016-04-04T02:43:15.615Z,77.53
2016-04-04T02:44:15.649Z,77.53
2016-04-04T02:45:15.636Z,77.34
2016-04-04T02:46:15.623Z,77.53
2016-04-04T02:47:15.642Z,77.72
2016-04-04T02:48:15.644Z,77.82
2016-04-04T02:49:15.647Z,78.11
2016-04-04T02:50:15.649Z,77.72
2016-04-04T02:51:15.636Z,77.72
2016-04-04T02:52:15.655Z,78.01
2016-04-04T02:53:15.641Z,77.72
2016-04-04T02:54:15.660Z,77.34
2016-04-04T02:55:15.663Z,77.25
2016-04-04T02:56:15.665Z,77.53
2016-04-04T02:57:15.684Z,77.53
2016-04-04T02:58:15.671Z,77.53
2016-04-04T02:59:15.674Z,77.53
2016-04-04T03:00:15.676Z,77.63
2016-04-04T03:01:15.695Z,76.77
2016-04-04T03:02:15.682Z,76.86
2016-04-04T03:03:15.715Z,77.06
2016-04-04T03:04:15.703Z,77.34
2016-04-04T03:05:15.705Z,77.63
2016-04-04T03:06:15.708Z,77.82
2016-04-04T03:07:15.710Z,77.92
2016-04-04T03:08:15.550Z,77.63
2016-04-04T03:09:15.741Z,78.11
2016-04-04T03:10:15.712Z,78.01
2016-04-04T03:11:15.715Z,77.63
2016-04-04T03:12:15.733Z,77.34
2016-04-04T03:13:15.751Z,77.15
2016-04-04T03:14:15.770Z,76.86
2016-04-04T03:15:15.757Z,76.77
2016-04-04T03:16:15.743Z,76.86
2016-04-04T03:17:15.762Z,76.39
2016-04-04T03:18:15.765Z,76.39
2016-04-04T03:19:15.768Z,75.91
2016-04-04T03:20:15.770Z,76
2016-04-04T03:21:15.773Z,76.2
2016-04-04T03:22:15.776Z,75.52
2016-04-04T03:23:15.778Z,75.71
2016-04-04T03:24:15.781Z,75.62
2016-04-04T03:25:15.784Z,75.34
2016-04-04T03:26:15.802Z,75.24
2016-04-04T03:27:15.789Z,75.34
2016-04-04T03:28:15.808Z,75.24
2016-04-04T03:29:15.810Z,75.34
2016-04-04T03:30:15.797Z,75.52
2016-04-04T03:31:15.816Z,75.34
2016-04-04T03:32:15.818Z,75.62
2016-04-04T03:33:15.852Z,75.43
2016-04-04T03:34:15.824Z,75.62
2016-04-04T03:35:15.827Z,75.81
2016-04-04T03:36:15.829Z,75.81
2016-04-04T03:37:15.832Z,75.71
2016-04-04T03:38:15.835Z,75.52
2016-04-04T03:39:15.853Z,75.62
2016-04-04T03:40:15.840Z,76.2
2016-04-04T03:41:15.857Z,76.39
2016-04-04T03:42:15.846Z,75.71
2016-04-04T03:43:15.848Z,76.39
2016-04-04T03:44:15.850Z,76.39
2016-04-04T03:45:15.854Z,76.2
2016-04-04T03:46:15.872Z,76.39
2016-04-04T03:47:15.890Z,76.1
2016-04-04T03:48:15.907Z,76.1
2016-04-04T03:49:15.880Z,76.1
2016-04-04T03:50:15.898Z,76.29
2016-04-04T03:51:15.884Z,76.1
2016-04-04T03:52:15.887Z,76
2016-04-04T03:53:15.890Z,76.57
2016-04-04T03:54:15.909Z,76.2
2016-04-04T03:55:15.895Z,76.1
2016-04-04T03:56:15.914Z,76.39
2016-04-04T03:57:15.917Z,76.1
2016-04-04T03:58:15.935Z,76.48
2016-04-04T03:59:15.937Z,76.1
2016-04-04T04:00:15.925Z,76.2
2016-04-04T04:01:15.943Z,76.39
2016-04-04T04:02:15.930Z,76.2
2016-04-04T04:03:15.933Z,76.39
2016-04-04T04:04:15.936Z,76.2
2016-04-04T04:05:15.969Z,76.1
2016-04-04T04:06:15.942Z,75.34
2016-04-04T04:07:15.976Z,76.1
2016-04-04T04:08:15.962Z,76.2
2016-04-04T04:09:15.965Z,75.52
2016-04-04T04:10:15.968Z,75.52
2016-04-04T04:11:15.955Z,76.1
2016-04-04T04:12:15.958Z,76
2016-04-04T04:13:15.961Z,75.62
2016-04-04T04:14:15.964Z,75.91
2016-04-04T04:15:15.981Z,76
2016-04-04T04:16:15.984Z,76
2016-04-04T04:17:15.987Z,76.39
2016-04-04T04:18:15.989Z,76.39
2016-04-04T04:19:16.008Z,76.29
2016-04-04T04:20:16.010Z,76.39
2016-04-04T04:21:15.998Z,76.2
2016-04-04T04:22:16.000Z,76.2
2016-04-04T04:23:16.002Z,76.2
2016-04-04T04:24:16.022Z,76.39
2016-04-04T04:25:16.008Z,76.2
2016-04-04T04:26:16.043Z,75.71
2016-04-04T04:27:16.029Z,76.2
2016-04-04T04:28:16.049Z,76.2
2016-04-04T04:29:16.035Z,75.81
2016-04-04T04:30:16.037Z,76.1
2016-04-04T04:31:16.040Z,76.2
2016-04-04T04:32:16.042Z,76.39
2016-04-04T04:33:16.046Z,76.2
2016-04-04T04:34:16.048Z,75.71
2016-04-04T04:35:16.067Z,75.52
2016-04-04T04:36:16.070Z,76.1
2016-04-04T04:37:16.072Z,76
2016-04-04T04:38:16.075Z,76.1
2016-04-04T04:39:16.108Z,76.39
2016-04-04T04:40:16.128Z,76.39
2016-04-04T04:41:16.098Z,76.1
2016-04-04T04:42:16.086Z,76
2016-04-04T04:43:16.072Z,76.29
2016-04-04T04:44:16.091Z,76.1
2016-04-04T04:45:16.125Z,76.1
2016-04-04T04:46:16.096Z,76.1
2016-04-04T04:47:16.099Z,76.2
2016-04-04T04:48:16.102Z,75.52
2016-04-04T04:49:16.105Z,75.62
2016-04-04T04:50:16.107Z,76
2016-04-04T04:51:16.110Z,75.81
2016-04-04T04:52:16.144Z,75.62
2016-04-04T04:53:16.115Z,76.39
2016-04-04T04:54:16.133Z,76.39
2016-04-04T04:55:16.151Z,76.39
2016-04-04T04:56:16.138Z,76.2
2016-04-04T04:57:16.157Z,76
2016-04-04T04:58:16.160Z,76
2016-04-04T04:59:16.162Z,76.29
2016-04-04T05:00:16.149Z,76.57
2016-04-04T05:01:16.168Z,76.48
2016-04-04T05:02:16.154Z,76.86
2016-04-04T05:03:16.174Z,76.86
2016-04-04T05:04:16.176Z,77.15
2016-04-04T05:05:16.163Z,77.34
2016-04-04T05:06:16.181Z,77.15
2016-04-04T05:07:16.184Z,77.34
2016-04-04T05:08:16.187Z,77.44
2016-04-04T05:09:16.205Z,77.44
2016-04-04T05:10:16.192Z,77.72
2016-04-04T05:11:16.210Z,78.3
2016-04-04T05:12:16.214Z,78.26
2016-04-04T05:13:16.200Z,78.16
2016-04-04T05:14:16.233Z,78.64
2016-04-04T05:15:16.237Z,78.55
2016-04-04T05:16:16.240Z,78.55
2016-04-04T05:17:16.227Z,78.83
2016-04-04T05:18:16.229Z,78.74
2016-04-04T05:19:16.233Z,79.12
2016-04-04T05:20:16.235Z,79.02
2016-04-04T05:21:16.252Z,79.31
2016-04-04T05:22:16.240Z,79.6
2016-04-04T05:23:16.243Z,79.22
2016-04-04T05:24:16.276Z,79.22
2016-04-04T05:25:29.029Z,79.69
2016-04-04T05:26:29.005Z,79.69
2016-04-04T05:27:16.708Z,79.69
2016-04-04T05:28:16.349Z,79.79
2016-04-04T05:29:16.290Z,79.88
2016-04-04T05:30:16.293Z,79.31
2016-04-04T05:31:16.280Z,79.5
2016-04-04T05:32:16.282Z,79.88
2016-04-04T05:33:16.145Z,79.88
2016-04-04T05:34:16.365Z,79.69
2016-04-04T05:35:16.306Z,79.88
2016-04-04T05:36:16.293Z,79.88
2016-04-04T05:37:16.312Z,79.98
2016-04-04T05:38:16.315Z,79.22
2016-04-04T05:39:16.317Z,79.31
2016-04-04T05:40:16.335Z,79.41
2016-04-04T05:41:16.322Z,79.6
2016-04-04T05:42:16.340Z,79.5
2016-04-04T05:43:16.328Z,79.02
2016-04-04T05:44:16.314Z,79.12
2016-04-04T05:45:16.365Z,78.55
2016-04-04T05:46:16.336Z,78.93
2016-04-04T05:47:16.339Z,78.74
2016-04-04T05:48:16.357Z,79.12
2016-04-04T05:49:16.344Z,78.45
2016-04-04T05:50:16.347Z,77.97
2016-04-04T05:51:16.349Z,78.16
2016-04-04T05:52:16.383Z,78.2
2016-04-04T05:53:16.369Z,77.69
2016-04-04T05:54:16.373Z,77.92
2016-04-04T05:55:16.407Z,77.82
2016-04-04T05:56:16.362Z,77.97
2016-04-04T05:57:16.381Z,77.97
2016-04-04T05:58:16.400Z,77.97
2016-04-04T05:59:16.402Z,78.11
2016-04-04T06:00:16.404Z,78.07
2016-04-04T06:01:16.391Z,77.63
2016-04-04T06:02:16.394Z,77.63
2016-04-04T06:03:16.396Z,77.53
2016-04-04T06:04:16.415Z,77.25
2016-04-04T06:05:16.418Z,77.44
2016-04-04T06:06:16.437Z,77.34
2016-04-04T06:07:16.423Z,77.72
2016-04-04T06:08:16.426Z,76.57
2016-04-04T06:09:16.445Z,76.67
2016-04-04T06:10:16.431Z,76.77
2016-04-04T06:11:16.434Z,76.57
2016-04-04T06:12:16.437Z,76.77
2016-04-04T06:13:16.439Z,76.48
2016-04-04T06:14:16.458Z,76.1
2016-04-04T06:15:16.476Z,76.1
2016-04-04T06:16:16.478Z,76.2
2016-04-04T06:17:16.466Z,75.62
2016-04-04T06:18:16.469Z,75.91
2016-04-04T06:19:16.487Z,75.47
2016-04-04T06:20:16.474Z,75.66
2016-04-04T06:21:16.477Z,74.99
2016-04-04T06:22:16.480Z,74.7
2016-04-04T06:23:16.513Z,74.32
2016-04-04T06:24:16.500Z,74.41
2016-04-04T06:25:16.502Z,74.04
2016-04-04T06:26:16.505Z,73.94
2016-04-04T06:27:16.508Z,73.79
2016-04-04T06:28:16.510Z,73.11
2016-04-04T06:29:16.514Z,72.92
2016-04-04T06:30:16.516Z,72.73
2016-04-04T06:31:16.535Z,71.58
2016-04-04T06:32:16.537Z,71.42
2016-04-04T06:33:16.541Z,70.76
2016-04-04T06:34:16.559Z,70.28
2016-04-04T06:35:16.561Z,69.54
2016-04-04T06:36:16.549Z,70.03
2016-04-04T06:37:16.567Z,69.54
2016-04-04T06:38:16.570Z,69.17
2016-04-04T06:39:16.572Z,68.97
2016-04-04T06:40:16.575Z,68.4
2016-04-04T06:41:16.593Z,68.49
2016-04-04T06:42:16.595Z,68.01
2016-04-04T06:43:16.583Z,67.47
2016-04-04T06:44:16.586Z,66.71
2016-04-04T06:45:16.604Z,66.22
2016-04-04T06:46:16.622Z,65.36
2016-04-04T06:47:16.625Z,64.53
2016-04-04T06:48:16.628Z,64.63
2016-04-04T06:49:16.645Z,64.63
2016-04-04T06:50:16.633Z,63.86
2016-04-04T06:51:16.635Z,64.43
2016-04-04T06:52:16.653Z,63.86
2016-04-04T06:53:16.656Z,63.96
2016-04-04T06:54:16.675Z,63.96
2016-04-04T06:55:16.661Z,64.72
2016-04-04T06:56:16.680Z,65.11
2016-04-04T06:57:16.683Z,65.39
2016-04-04T06:58:16.685Z,65.39
2016-04-04T06:59:16.688Z,65.59
2016-04-04T07:00:16.722Z,65.88
2016-04-04T07:01:16.699Z,66.22
2016-04-04T07:02:16.717Z,66.03
2016-04-04T07:03:16.720Z,66.22
2016-04-04T07:04:16.722Z,66.22
2016-04-04T07:05:16.726Z,66.22
2016-04-04T07:06:16.743Z,66.03
2016-04-04T07:07:16.746Z,66.13
2016-04-04T07:08:16.748Z,66.03
2016-04-04T07:09:16.782Z,66.03
2016-04-04T07:10:16.769Z,66.13
2016-04-04T07:11:16.772Z,65.59
2016-04-04T07:12:16.775Z,65.01
2016-04-04T07:13:16.777Z,63.32
2016-04-04T07:14:16.812Z,62.55
2016-04-04T07:15:16.814Z,62.74
2016-04-04T07:16:16.660Z,61.91
2016-04-04T07:17:16.819Z,61.14
2016-04-04T07:18:16.838Z,60.85
2016-04-04T07:19:16.809Z,60.6
2016-04-04T07:20:16.858Z,60.08
2016-04-04T07:21:16.878Z,59.44
2016-04-04T07:22:16.880Z,58
2016-04-04T07:23:16.883Z,57.55
2016-04-04T07:24:16.885Z,56.78
2016-04-04T07:25:16.872Z,55.18
2016-04-04T07:26:16.891Z,53.86
2016-04-04T07:27:16.894Z,51.19
2016-04-04T07:28:16.896Z,50.45
2016-04-04T07:29:16.914Z,48.93
2016-04-04T07:30:16.918Z,47.89
2016-04-04T07:31:16.936Z,46.47
2016-04-04T07:32:16.938Z,45.89
2016-04-04T07:33:16.940Z,44.85
2016-04-04T07:34:16.944Z,44.01
2016-04-04T07:35:16.976Z,44.59
2016-04-04T07:36:16.980Z,43.62
2016-04-04T07:37:16.982Z,44.6
2016-04-04T07:38:17.001Z,43.74
2016-04-04T07:39:16.988Z,44.12
2016-04-04T07:40:17.007Z,42.58
2016-04-04T07:41:17.040Z,43.06
2016-04-04T07:42:17.042Z,43.06
2016-04-04T07:43:17.046Z,41.91
2016-04-04T07:44:17.065Z,41.83
2016-04-04T07:45:17.067Z,41.71
2016-04-04T07:46:17.069Z,41.73
2016-04-04T07:47:17.072Z,41.63
2016-04-04T07:48:17.091Z,41.15
2016-04-04T07:49:17.094Z,41.05
2016-04-04T07:50:17.111Z,41.27
2016-04-04T07:51:17.114Z,40.4
2016-04-04T07:52:17.116Z,40.86
2016-04-04T07:53:17.136Z,42.21
2016-04-04T07:54:17.138Z,42.75
2016-04-04T07:55:17.155Z,44.18
2016-04-04T07:56:17.175Z,45.6
2016-04-04T07:57:17.021Z,47.12
2016-04-04T07:58:17.180Z,48.54
2016-04-04T07:59:17.198Z,48.81
2016-04-04T08:00:17.201Z,49.38
2016-04-04T08:01:17.218Z,49.46
2016-04-04T08:02:17.238Z,50.04
2016-04-04T08:03:17.240Z,50.61
2016-04-04T08:04:17.243Z,51.93
2016-04-04T08:05:17.230Z,53.35
2016-04-04T08:06:17.249Z,53.92
2016-04-04T08:07:17.251Z,54.19
2016-04-04T08:08:17.253Z,53.52
2016-04-04T08:09:17.272Z,52.77
2016-04-04T08:10:17.290Z,50.68
2016-04-04T08:11:17.309Z,48.61
2016-04-04T08:12:17.311Z,46.71
2016-04-04T08:13:17.298Z,43.77
2016-04-04T08:14:17.300Z,42.83
2016-04-04T08:15:17.350Z,41.6
2016-04-04T08:16:17.353Z,39.97
2016-04-04T08:17:17.356Z,40.57
2016-04-04T08:18:17.343Z,40.77
2016-04-04T08:19:17.361Z,42.19
2016-04-04T08:20:17.364Z,42.85
2016-04-04T08:21:17.398Z,44.76
2016-04-04T08:22:17.369Z,45.97
2016-04-04T08:23:17.388Z,48.71
2016-04-04T08:24:17.406Z,50.51
2016-04-04T08:25:17.425Z,51.84
2016-04-04T08:26:17.443Z,53.16
2016-04-04T08:27:17.430Z,53.61
2016-04-04T08:28:17.448Z,54.38
2016-04-04T08:29:17.452Z,55.12
2016-04-04T08:30:17.438Z,55.69
2016-04-04T08:31:17.472Z,56.24
2016-04-04T08:32:17.474Z,56.53
2016-04-04T08:33:17.483Z,57.3
2016-04-04T08:34:17.443Z,57.3
2016-04-04T08:35:17.434Z,57.4
2016-04-04T08:36:17.456Z,58.26
2016-04-04T08:37:17.430Z,58.52
2016-04-04T08:38:17.444Z,58.81
2016-04-04T08:39:17.457Z,59.29
2016-04-04T08:40:17.440Z,59.19
2016-04-04T08:41:17.470Z,59.09
2016-04-04T08:42:17.452Z,59
2016-04-04T08:43:17.469Z,59
2016-04-04T08:44:17.486Z,59
2016-04-04T08:45:17.472Z,58.71
2016-04-04T08:46:17.504Z,58.74
2016-04-04T08:47:17.504Z,58.26
2016-04-04T08:48:17.523Z,57.4
2016-04-04T08:49:17.493Z,56.92
2016-04-04T08:50:17.495Z,57.01
2016-04-04T08:51:17.497Z,56.63
2016-04-04T08:52:17.499Z,56.05
2016-04-04T08:53:17.501Z,55.6
2016-04-04T08:54:17.519Z,55.32
2016-04-04T08:55:17.521Z,55.51
2016-04-04T08:56:17.539Z,54.77
2016-04-04T08:57:17.525Z,53.8
2016-04-04T08:58:17.528Z,53.8
2016-04-04T08:59:17.531Z,53.54
2016-04-04T09:00:17.534Z,52.58
2016-04-04T09:01:17.583Z,52.48
2016-04-04T09:02:17.585Z,52.87
2016-04-04T09:03:17.589Z,52.39
2016-04-04T09:04:17.591Z,52.48
2016-04-04T09:05:17.594Z,52.97
2016-04-04T09:06:18.518Z,52.68
2016-04-04T09:07:17.599Z,52.2
2016-04-04T09:08:17.587Z,51.81
2016-04-04T09:09:17.605Z,52.68
2016-04-04T09:10:17.623Z,52.77
2016-04-04T09:11:17.610Z,53.35
2016-04-04T09:12:17.643Z,52.87
2016-04-04T09:13:17.631Z,52.58
2016-04-04T09:14:17.649Z,52
2016-04-04T09:15:17.684Z,52
2016-04-04T09:16:17.701Z,52.03
2016-04-04T09:17:17.673Z,52.12
2016-04-04T09:18:17.660Z,52.12
2016-04-04T09:19:17.694Z,52.12
2016-04-04T09:20:17.681Z,51.45
2016-04-04T09:21:17.684Z,51.33
2016-04-04T09:22:17.702Z,50.59
2016-04-04T09:23:17.705Z,50.85
2016-04-04T09:24:17.708Z,51.43
2016-04-04T09:25:17.726Z,51.43
2016-04-04T09:26:17.744Z,52.1
2016-04-04T09:27:17.747Z,52.75
2016-04-04T09:28:17.734Z,53.13
2016-04-04T09:29:17.736Z,52.94
2016-04-04T09:30:17.755Z,51.98
2016-04-04T09:31:17.774Z,51.79
2016-04-04T09:32:17.760Z,51.31
2016-04-04T09:33:17.763Z,51.53
2016-04-04T09:34:17.782Z,51.14
2016-04-04T09:35:17.784Z,51.04
2016-04-04T09:36:17.802Z,51.53
2016-04-04T09:37:17.821Z,52.1
2016-04-04T09:38:17.808Z,52.65
2016-04-04T09:39:17.810Z,52.68
2016-04-04T09:40:17.813Z,53.35
2016-04-04T09:41:17.815Z,53.7
2016-04-04T09:42:17.818Z,55.53
2016-04-04T09:43:17.837Z,56.01
2016-04-04T09:44:17.855Z,56.46
2016-04-04T09:45:17.874Z,55.89
2016-04-04T09:46:17.860Z,55.51
2016-04-04T09:47:17.862Z,55.47
2016-04-04T09:48:17.882Z,56.02
2016-04-04T09:49:17.901Z,57.18
2016-04-04T09:50:17.871Z,57.34
2016-04-04T09:51:17.905Z,58.49
2016-04-04T09:52:17.892Z,59.64
2016-04-04T09:53:17.878Z,59.9
2016-04-04T09:54:17.897Z,61.05
2016-04-04T09:55:17.917Z,61.24
2016-04-04T09:56:17.903Z,61.88
2016-04-04T09:57:17.937Z,62.55
2016-04-04T09:58:17.939Z,63.13
2016-04-04T09:59:17.942Z,63.32
2016-04-04T10:00:17.930Z,63.7
2016-04-04T10:01:17.933Z,63.89
2016-04-04T10:02:17.936Z,64.09
2016-04-04T10:03:17.953Z,63.99
2016-04-04T10:04:17.940Z,63.32
2016-04-04T10:05:17.990Z,63.48
2016-04-04T10:06:17.961Z,63.99
2016-04-04T10:07:17.964Z,63.6
2016-04-04T10:08:17.966Z,63.39
2016-04-04T10:09:17.969Z,63.57
2016-04-04T10:10:17.961Z,63.86
2016-04-04T10:11:17.996Z,64.05
2016-04-04T10:12:17.967Z,63.96
2016-04-04T10:13:17.970Z,64.15
2016-04-04T10:14:17.987Z,64.25
2016-04-04T10:15:17.990Z,64.05
2016-04-04T10:16:17.993Z,63.48
2016-04-04T10:17:17.996Z,63.76
2016-04-04T10:18:17.998Z,63.76
2016-04-04T10:19:18.001Z,63.86
2016-04-04T10:20:18.050Z,63.29
2016-04-04T10:21:18.022Z,62.93
2016-04-04T10:22:18.009Z,62.46
2016-04-04T10:23:18.028Z,61.5
2016-04-04T10:24:18.030Z,60.86
2016-04-04T10:25:18.048Z,60.57
2016-04-04T10:26:18.036Z,60.09
2016-04-04T10:27:18.023Z,59.04
2016-04-04T10:28:18.041Z,58.69
2016-04-04T10:29:18.028Z,58.59
2016-04-04T10:30:18.046Z,58.11
2016-04-04T10:31:18.064Z,57.92
2016-04-04T10:32:18.066Z,58.11
2016-04-04T10:33:18.070Z,57.82
2016-04-04T10:34:18.073Z,57.24
2016-04-04T10:35:18.075Z,56.41
2016-04-04T10:36:18.093Z,55.55
2016-04-04T10:37:18.096Z,54.9
2016-04-04T10:38:18.098Z,54.9
2016-04-04T10:39:18.101Z,54.71
2016-04-04T10:40:18.183Z,54.71
2016-04-04T10:41:18.091Z,54.88
2016-04-04T10:42:18.141Z,55.29
2016-04-04T10:43:18.143Z,54.97
2016-04-04T10:44:18.115Z,55.29
2016-04-04T10:45:18.118Z,54.78
2016-04-04T10:46:18.137Z,54.8
2016-04-04T10:47:18.123Z,54.42
2016-04-04T10:48:18.142Z,54.23
2016-04-04T10:49:18.144Z,53.85
2016-04-04T10:50:18.162Z,54.13
2016-04-04T10:51:18.165Z,53.94
2016-04-04T10:52:18.153Z,54.42
2016-04-04T10:53:18.155Z,53.94
2016-04-04T10:54:18.158Z,54.23
2016-04-04T10:55:18.175Z,53.85
2016-04-04T10:56:18.178Z,53.75
2016-04-04T10:57:18.197Z,54.13
2016-04-04T10:58:18.216Z,54.61
2016-04-04T10:59:18.202Z,54.68
2016-04-04T11:00:18.205Z,54.8
2016-04-04T11:01:18.239Z,55.1
2016-04-04T11:02:18.227Z,54.9
2016-04-04T11:03:18.244Z,54.49
2016-04-04T11:04:18.247Z,54.9
2016-04-04T11:05:18.234Z,54.23
2016-04-04T11:06:18.238Z,53.94
2016-04-04T11:07:18.255Z,54.04
2016-04-04T11:08:18.267Z,54.23
2016-04-04T11:09:18.254Z,53.94
2016-04-04T11:10:18.273Z,54.42
2016-04-04T11:11:18.259Z,54.71
2016-04-04T11:12:18.262Z,54.8
2016-04-04T11:13:18.281Z,54.97
2016-04-04T11:14:18.300Z,55.26
2016-04-04T11:15:18.286Z,55.26
2016-04-04T11:16:18.305Z,54.97
2016-04-04T11:17:18.308Z,55.29
2016-04-04T11:18:18.311Z,55.26
2016-04-04T11:19:18.297Z,54.71
2016-04-04T11:20:18.316Z,54.9
2016-04-04T11:21:18.365Z,55.29
2016-04-04T11:22:18.322Z,55.1
2016-04-04T11:23:18.339Z,54.8
2016-04-04T11:24:18.327Z,54.71
2016-04-04T11:25:18.345Z,54.8
2016-04-04T11:26:18.347Z,54.23
2016-04-04T11:27:18.350Z,53.94
2016-04-04T11:28:18.338Z,53.78
2016-04-04T11:29:18.386Z,54.16
2016-04-04T11:30:18.358Z,53.58
2016-04-04T11:31:18.376Z,53.3
2016-04-04T11:32:18.394Z,53.2
2016-04-04T11:33:18.396Z,53.58
2016-04-04T11:34:18.399Z,53.2
2016-04-04T11:35:18.402Z,53.2
2016-04-04T11:36:18.389Z,53.3
2016-04-04T11:37:18.407Z,53.11
2016-04-04T11:38:18.416Z,53.3
2016-04-04T11:39:18.418Z,53.78
2016-04-04T11:40:18.421Z,54.25
2016-04-04T11:41:18.455Z,54.23
2016-04-04T11:42:18.442Z,54.71
2016-04-04T11:43:18.461Z,55
2016-04-04T11:44:18.447Z,55.38
2016-04-04T11:45:18.466Z,55.29
2016-04-04T11:46:18.468Z,55.38
2016-04-04T11:47:18.471Z,55.19
2016-04-04T11:48:18.474Z,55
2016-04-04T11:49:18.460Z,55.19
2016-04-04T11:50:18.479Z,54.61
2016-04-04T11:51:18.482Z,54.8
2016-04-04T11:52:18.485Z,54.8
2016-04-04T11:53:18.487Z,54.68
2016-04-04T11:54:18.522Z,55.1
2016-04-04T11:55:18.524Z,54.23
2016-04-04T11:56:18.527Z,53.85
2016-04-04T11:57:18.530Z,53.56
2016-04-04T11:58:18.516Z,53.17
2016-04-04T11:59:18.519Z,53.36
2016-04-04T12:00:18.537Z,52.05
2016-04-04T12:01:18.540Z,51.47
2016-04-04T12:02:18.543Z,50.9
2016-04-04T12:03:18.545Z,50.8
2016-04-04T12:04:18.548Z,51.09
2016-04-04T12:05:18.565Z,50.99
2016-04-04T12:06:18.584Z,50.51
2016-04-04T12:07:18.571Z,50.32
2016-04-04T12:08:18.573Z,49.55
2016-04-04T12:09:18.593Z,49.17
2016-04-04T12:10:18.579Z,47.36
2016-04-04T12:11:18.598Z,45.92
2016-04-04T12:12:18.601Z,44.56
2016-04-04T12:13:18.604Z,44.65
2016-04-04T12:14:18.622Z,44.37
2016-04-04T12:15:18.625Z,44.63
2016-04-04T12:16:18.627Z,44.54
2016-04-04T12:17:18.645Z,44.44
2016-04-04T12:18:18.633Z,44.54
2016-04-04T12:19:18.635Z,44.34
2016-04-04T12:20:18.639Z,44.54
2016-04-04T12:21:18.656Z,44.44
2016-04-04T12:22:18.659Z,44.34
2016-04-04T12:23:18.662Z,44.63
2016-04-04T12:24:18.680Z,44.27
2016-04-04T12:25:18.667Z,43.88
2016-04-04T12:26:18.670Z,43.5
2016-04-04T12:27:18.672Z,43.4
2016-04-04T12:28:18.691Z,43.5
2016-04-04T12:29:18.677Z,43.31
2016-04-04T12:30:18.696Z,42.81
2016-04-04T12:31:18.715Z,42.9
2016-04-04T12:32:18.717Z,43.02
2016-04-04T12:33:18.720Z,42.13
2016-04-04T12:34:18.737Z,42.23
2016-04-04T12:35:18.740Z,42.25
2016-04-04T12:36:18.712Z,42.73
2016-04-04T12:37:18.762Z,43.02
2016-04-04T12:38:18.748Z,43.5
2016-04-04T12:39:18.752Z,44.65
2016-04-04T12:40:18.801Z,45.23
2016-04-04T12:41:18.773Z,45.42
2016-04-04T12:42:18.760Z,45.42
2016-04-04T12:43:18.762Z,45.32
2016-04-04T12:44:18.796Z,44.82
2016-04-04T12:45:18.783Z,44.46
2016-04-04T12:46:18.786Z,44.56
2016-04-04T12:47:18.789Z,44.54
2016-04-04T12:48:18.806Z,44.37
2016-04-04T12:49:18.794Z,44.75
2016-04-04T12:50:18.797Z,45.23
2016-04-04T12:51:18.814Z,45.4
2016-04-04T12:52:18.817Z,45.5
2016-04-04T12:53:18.835Z,45.5
2016-04-04T12:54:18.854Z,45.23
2016-04-04T12:55:18.841Z,46.26
2016-04-04T12:56:18.843Z,45.98
2016-04-04T12:57:18.831Z,45.98
2016-04-04T12:58:18.865Z,45.78